createdAt,value
2023-04-27T00:00:35.830Z,1015.8
2023-04-27T00:06:42.218Z,1015.8
2023-04-27T00:12:48.392Z,1015.7
2023-04-27T00:18:54.396Z,1015.7
2023-04-27T00:24:59.988Z,1015.7
2023-04-27T00:31:05.331Z,1015.7
2023-04-27T00:37:11.161Z,1015.6
2023-04-27T00:43:17.082Z,1015.7
2023-04-27T00:49:23.041Z,1015.6
2023-04-27T00:55:29.514Z,1015.6
2023-04-27T01:01:34.839Z,1015.6
2023-04-27T01:07:40.470Z,1015.6
2023-04-27T01:13:45.758Z,1015.6
2023-04-27T01:19:51.588Z,1015.7
2023-04-27T01:25:56.901Z,1015.6
2023-04-27T01:32:03.147Z,1015.7
2023-04-27T01:38:08.680Z,1015.6
2023-04-27T01:44:14.294Z,1015.7
2023-04-27T01:50:20.636Z,1015.7
2023-04-27T01:56:26.008Z,1015.7
2023-04-27T02:02:32.097Z,1015.7
2023-04-27T02:08:38.581Z,1015.7
2023-04-27T02:14:43.590Z,1015.8
2023-04-27T02:20:48.908Z,1015.8
2023-04-27T02:26:54.317Z,1015.9
2023-04-27T02:32:59.473Z,1015.9
2023-04-27T02:39:05.472Z,1015.8
2023-04-27T02:45:11.409Z,1015.9
2023-04-27T02:51:16.650Z,1016
2023-04-27T02:57:22.735Z,1016
2023-04-27T03:03:28.589Z,1016
2023-04-27T03:09:34.785Z,1015.9
2023-04-27T03:15:40.681Z,1015.9
2023-04-27T03:21:45.485Z,1016
2023-04-27T03:27:51.436Z,1016
2023-04-27T03:33:57.094Z,1016
2023-04-27T03:40:02.385Z,1016.1
2023-04-27T03:46:08.358Z,1016.1
2023-04-27T03:52:14.555Z,1016.1
2023-04-27T03:58:20.132Z,1016.1
2023-04-27T04:04:25.821Z,1016.2
2023-04-27T04:10:32.480Z,1016.3
2023-04-27T04:16:38.130Z,1016.4
2023-04-27T04:22:43.842Z,1016.5
2023-04-27T04:28:49.088Z,1016.5
2023-04-27T04:34:55.177Z,1016.6
2023-04-27T04:41:00.570Z,1016.6
2023-04-27T04:47:05.979Z,1016.6
2023-04-27T04:53:11.346Z,1016.5
2023-04-27T04:59:17.271Z,1016.6
2023-04-27T05:05:22.891Z,1016.7
2023-04-27T05:11:27.669Z,1016.7
2023-04-27T05:17:33.601Z,1016.7
2023-04-27T05:23:38.822Z,1016.8
2023-04-27T05:29:44.728Z,1016.7
2023-04-27T05:35:50.356Z,1016.7
2023-04-27T05:41:56.285Z,1016.8
2023-04-27T05:48:02.125Z,1017
2023-04-27T05:54:08.053Z,1017.1
2023-04-27T06:00:13.266Z,1016.9
2023-04-27T06:06:18.765Z,1016.9
2023-04-27T06:12:24.808Z,1016.9
2023-04-27T06:18:29.922Z,1016.9
2023-04-27T06:24:36.111Z,1016.9
2023-04-27T06:30:41.891Z,1017
2023-04-27T06:36:48.059Z,1017
2023-04-27T06:42:53.518Z,1017
2023-04-27T06:48:59.636Z,1017
2023-04-27T06:55:05.195Z,1017.1
2023-04-27T07:01:10.786Z,1017
2023-04-27T07:07:16.639Z,1017.1
2023-04-27T07:13:22.533Z,1017.1
2023-04-27T07:19:28.159Z,1017.2
2023-04-27T07:25:34.094Z,1017.2
2023-04-27T07:31:39.728Z,1017.2
2023-04-27T07:37:45.855Z,1017.1
2023-04-27T07:43:51.825Z,1017.2
2023-04-27T07:49:57.192Z,1017.1
2023-04-27T07:56:03.374Z,1017.1
2023-04-27T08:02:21.479Z,1017.2
2023-04-27T08:08:27.087Z,1017.3
2023-04-27T08:14:33.191Z,1017.3
2023-04-27T08:20:39.377Z,1017.3
2023-04-27T08:26:45.359Z,1017.3
2023-04-27T08:32:50.542Z,1017.3
2023-04-27T08:38:56.633Z,1017.3
2023-04-27T08:45:02.175Z,1017.3
2023-04-27T08:51:08.298Z,1017.3
2023-04-27T08:57:13.578Z,1017.2
2023-04-27T09:03:19.185Z,1017.2
2023-04-27T09:09:25.429Z,1017.2
2023-04-27T09:15:30.600Z,1017.2
2023-04-27T09:21:36.433Z,1017.1
2023-04-27T09:27:41.515Z,1017.1
2023-04-27T09:33:47.501Z,1017
2023-04-27T09:39:52.849Z,1017
2023-04-27T09:45:58.913Z,1017
2023-04-27T09:52:04.418Z,1016.9
2023-04-27T09:58:10.669Z,1016.9
2023-04-27T10:04:16.473Z,1016.9
2023-04-27T10:10:23.040Z,1016.8
2023-04-27T10:16:28.574Z,1016.8
2023-04-27T10:22:34.508Z,1016.7
2023-04-27T10:28:40.924Z,1016.7
2023-04-27T10:34:46.170Z,1016.7
2023-04-27T10:40:51.891Z,1016.7
2023-04-27T10:46:57.135Z,1016.6
2023-04-27T10:53:02.802Z,1016.6
2023-04-27T10:59:08.677Z,1016.7
2023-04-27T11:05:13.611Z,1016.7
2023-04-27T11:11:19.789Z,1016.6
2023-04-27T11:17:25.119Z,1016.6
2023-04-27T11:23:32.319Z,1016.7
2023-04-27T11:29:38.093Z,1016.7
2023-04-27T11:35:43.287Z,1016.7
2023-04-27T11:41:49.446Z,1016.8
2023-04-27T11:47:55.446Z,1016.7
2023-04-27T11:54:01.448Z,1016.8
2023-04-27T12:00:06.450Z,1016.8
2023-04-27T12:06:33.912Z,1016.9
2023-04-27T12:12:39.836Z,1016.8
2023-04-27T12:18:45.402Z,1016.8
2023-04-27T12:24:51.387Z,1016.9
2023-04-27T12:30:57.602Z,1016.8
2023-04-27T12:37:02.394Z,1016.8
2023-04-27T12:43:08.315Z,1016.8
2023-04-27T12:49:13.531Z,1016.7
2023-04-27T12:55:34.570Z,1016.6
2023-04-27T13:01:40.414Z,1016.6
2023-04-27T13:07:46.362Z,1016.6
2023-04-27T13:13:52.200Z,1016.7
2023-04-27T13:19:58.328Z,1016.6
2023-04-27T13:26:03.966Z,1016.6
2023-04-27T13:32:10.088Z,1016.6
2023-04-27T13:38:15.319Z,1016.6
2023-04-27T13:44:20.886Z,1016.5
2023-04-27T13:50:25.735Z,1016.5
2023-04-27T13:56:31.155Z,1016.5
2023-04-27T14:02:36.802Z,1016.4
2023-04-27T14:08:42.096Z,1016.4
2023-04-27T14:14:48.484Z,1016.4
2023-04-27T14:20:53.854Z,1016.3
2023-04-27T14:26:59.830Z,1016.2
2023-04-27T14:33:05.860Z,1016.2
2023-04-27T14:39:11.498Z,1016.3
2023-04-27T14:45:17.637Z,1016.2
2023-04-27T14:51:23.224Z,1016.2
2023-04-27T14:57:27.947Z,1016.2
2023-04-27T15:03:34.085Z,1016.1
2023-04-27T15:09:40.690Z,1016.1
2023-04-27T15:15:46.138Z,1016.2
2023-04-27T15:21:51.288Z,1016.2
2023-04-27T15:27:56.873Z,1016.2
2023-04-27T15:34:01.964Z,1016.1
2023-04-27T15:40:07.737Z,1016
2023-04-27T15:46:13.416Z,1016
2023-04-27T15:52:19.688Z,1016.1
2023-04-27T15:58:25.684Z,1016.1
2023-04-27T16:04:31.939Z,1016.2
2023-04-27T16:10:37.088Z,1016.2
2023-04-27T16:16:43.050Z,1016
2023-04-27T16:22:48.579Z,1016
2023-04-27T16:28:54.374Z,1016
2023-04-27T16:34:59.780Z,1016
2023-04-27T16:41:05.698Z,1016.1
2023-04-27T16:47:10.672Z,1016
2023-04-27T16:53:16.052Z,1015.9
2023-04-27T16:59:21.596Z,1015.9
2023-04-27T17:05:27.441Z,1015.9
2023-04-27T17:11:32.560Z,1015.9
2023-04-27T17:17:37.925Z,1015.9
2023-04-27T17:23:43.146Z,1015.9
2023-04-27T17:29:48.667Z,1015.8
2023-04-27T17:35:55.691Z,1015.8
2023-04-27T17:42:01.702Z,1015.9
2023-04-27T17:48:07.061Z,1015.9
2023-04-27T17:54:13.251Z,1015.9
2023-04-27T18:00:18.581Z,1016
2023-04-27T18:06:24.755Z,1016
2023-04-27T18:12:30.378Z,1016
2023-04-27T18:18:36.295Z,1016
2023-04-27T18:24:41.126Z,1016
2023-04-27T18:30:46.836Z,1016
2023-04-27T18:36:53.852Z,1016.1
2023-04-27T18:42:59.488Z,1016.2
2023-04-27T18:49:04.788Z,1016.3
2023-04-27T18:55:10.828Z,1016.3
2023-04-27T19:01:16.197Z,1016.4
2023-04-27T19:07:21.767Z,1016.4
2023-04-27T19:13:26.884Z,1016.4
2023-04-27T19:19:33.056Z,1016.5
2023-04-27T19:25:39.040Z,1016.4
2023-04-27T19:31:44.825Z,1016.4
2023-04-27T19:37:50.815Z,1016.4
2023-04-27T19:43:56.833Z,1016.3
2023-04-27T19:50:01.943Z,1016.3
2023-04-27T19:56:08.139Z,1016.4
2023-04-27T20:02:13.998Z,1016.3
2023-04-27T20:08:20.322Z,1016.4
2023-04-27T20:14:25.946Z,1016.4
2023-04-27T20:20:30.852Z,1016.4
2023-04-27T20:26:36.622Z,1016.3
2023-04-27T20:32:42.201Z,1016.3
2023-04-27T20:38:48.356Z,1016.3
2023-04-27T20:44:54.003Z,1016.3
2023-04-27T20:50:59.939Z,1016.2
2023-04-27T20:57:05.693Z,1016.1
2023-04-27T21:03:11.988Z,1016.2
2023-04-27T21:09:18.136Z,1016.1
2023-04-27T21:15:24.272Z,1016.1
2023-04-27T21:21:29.701Z,1016.2
2023-04-27T21:27:35.621Z,1016
2023-04-27T21:33:41.248Z,1016
2023-04-27T21:39:46.974Z,1016
2023-04-27T21:45:52.830Z,1015.9
2023-04-27T21:51:59.132Z,1016
2023-04-27T21:58:04.586Z,1015.9
2023-04-27T22:04:10.653Z,1015.9
2023-04-27T22:10:17.279Z,1015.9
2023-04-27T22:16:23.096Z,1015.8
2023-04-27T22:22:28.643Z,1015.8
2023-04-27T22:28:34.883Z,1015.9
2023-04-27T22:34:39.988Z,1015.9
2023-04-27T22:40:45.961Z,1015.8
2023-04-27T22:46:51.771Z,1015.8
2023-04-27T22:52:57.787Z,1015.7
2023-04-27T22:59:03.526Z,1015.7
2023-04-27T23:05:09.363Z,1015.7
2023-04-27T23:11:15.884Z,1015.6
2023-04-27T23:17:20.887Z,1015.6
2023-04-27T23:23:27.012Z,1015.6
2023-04-27T23:29:31.979Z,1015.5
2023-04-27T23:35:37.557Z,1015.5
2023-04-27T23:41:43.339Z,1015.4
2023-04-27T23:47:49.183Z,1015.4
2023-04-27T23:53:54.479Z,1015.4
